KFWA/FWA METAR and TAF weather

Enter ICAO airport designator
Station Type Date Time Source
KFWA METAR 2019/12/13 16:54 UTC NOAA

KFWA 131654Z 19006KT 10SM FEW090 SCT150 OVC200 04/M01 A3000 RMK AO2 SLP167 T00391011


Station Type Date Time Source
KFWA Decoded METAR 2019/12/13 16:54 UTC NOAA

FORT WAYNE INTERNATIONAL, IN, United States (KFWA) 41-00N 85-12W 248M
Dec 13, 2019 - 11:54 AM EST / 2019.12.13 1654 UTC
Wind: from the S (190 degrees) at 7 MPH (6 KT):0
Visibility: 10 mile(s):0
Sky conditions: overcast
Temperature: 39.0 F (3.9 C)
Dew Point: 30.0 F (-1.1 C)
Relative Humidity: 69%
Pressure (altimeter): 30 in. Hg (1015 hPa)
ob: KFWA 131654Z 19006KT 10SM FEW090 SCT150 OVC200 04/M01 A3000 RMK AO2 SLP167 T00391011
cycle: 17

Station Type Date Time Source
KFWA TAF 2019/12/13 12:22 UTC NOAA

TAF KFWA 131120Z 1312/1412 18008KT P6SM SCT080 BKN250
FM140800 VRB03KT 3SM BR BKN015 OVC050

Example: see airport list